createdAt,value
2018-09-05T00:02:03.750Z,28.67
2018-09-05T00:04:35.766Z,32.67
2018-09-05T00:07:07.791Z,32.27
2018-09-05T00:09:39.769Z,32.40
2018-09-05T00:12:11.749Z,30.73
2018-09-05T00:14:43.772Z,29.67
2018-09-05T00:17:15.790Z,32.70
2018-09-05T00:19:47.782Z,29.07
2018-09-05T00:22:19.891Z,30.83
2018-09-05T00:24:51.882Z,30.40
2018-09-05T00:27:23.918Z,28.77
2018-09-05T00:29:56.063Z,29.27
2018-09-05T00:32:28.071Z,28.53
2018-09-05T00:35:00.162Z,29.07
2018-09-05T00:37:32.151Z,30.10
2018-09-05T00:40:04.212Z,30.20
2018-09-05T00:42:36.299Z,29.40
2018-09-05T00:45:08.282Z,33.27
2018-09-05T00:47:40.257Z,30.50
2018-09-05T00:50:12.230Z,31.70
2018-09-05T00:52:44.211Z,30.10
2018-09-05T00:55:16.247Z,30.23
2018-09-05T00:57:48.226Z,30.67
2018-09-05T01:00:20.219Z,30.37
2018-09-05T01:02:52.220Z,30.70
2018-09-05T01:05:24.215Z,28.97
2018-09-05T01:07:56.234Z,35.63
2018-09-05T01:10:28.223Z,36.77
2018-09-05T01:13:00.239Z,38.00
2018-09-05T01:15:32.282Z,38.90
2018-09-05T01:18:04.342Z,38.77
2018-09-05T01:20:36.362Z,40.97
2018-09-05T01:23:08.391Z,46.87
2018-09-05T01:25:40.472Z,44.07
2018-09-05T01:28:12.501Z,39.63
2018-09-05T01:30:44.514Z,52.77
2018-09-05T01:33:16.601Z,46.93
2018-09-05T01:35:48.932Z,49.37
2018-09-05T01:38:20.940Z,49.00
2018-09-05T01:40:52.970Z,59.70
2018-09-05T01:43:24.957Z,54.10
2018-09-05T01:45:56.931Z,68.17
2018-09-05T01:48:28.926Z,53.37
2018-09-05T01:51:00.917Z,62.27
2018-09-05T01:53:32.979Z,56.03
2018-09-05T01:56:05.179Z,56.50
2018-09-05T01:58:37.216Z,52.17
2018-09-05T02:01:09.250Z,52.83
2018-09-05T02:03:41.350Z,81.83
2018-09-05T02:06:13.399Z,48.57
2018-09-05T02:08:45.384Z,48.97
2018-09-05T02:11:18.090Z,44.17
2018-09-05T02:13:50.112Z,56.80
2018-09-05T02:16:22.083Z,42.23
2018-09-05T02:18:54.070Z,42.00
2018-09-05T02:21:26.044Z,72.73
2018-09-05T02:23:58.084Z,55.10
2018-09-05T02:26:30.123Z,62.03
2018-09-05T02:29:02.129Z,46.67
2018-09-05T02:31:34.163Z,40.50
2018-09-05T02:34:06.179Z,36.53
2018-09-05T02:36:38.187Z,46.93
2018-09-05T02:39:11.023Z,41.63
2018-09-05T02:41:43.034Z,41.50
2018-09-05T02:44:20.550Z,48.73
2018-09-05T02:46:52.598Z,45.27
2018-09-05T02:49:24.666Z,42.17
2018-09-05T02:51:56.675Z,55.43
2018-09-05T02:54:28.714Z,58.77
2018-09-05T02:57:00.842Z,48.63
2018-09-05T02:59:32.995Z,71.73
2018-09-05T03:02:05.028Z,49.67
2018-09-05T03:04:37.106Z,49.60
2018-09-05T03:07:09.159Z,42.17
2018-09-05T03:09:41.207Z,57.60
2018-09-05T03:12:17.806Z,39.23
2018-09-05T03:14:51.275Z,45.37
2018-09-05T03:17:23.288Z,35.47
2018-09-05T03:19:55.289Z,38.77
2018-09-05T03:22:27.347Z,41.27
2018-09-05T03:24:59.420Z,37.93
2018-09-05T03:27:31.438Z,38.30
2018-09-05T03:30:03.547Z,41.97
2018-09-05T03:32:35.712Z,35.33
2018-09-05T03:35:07.621Z,40.50
2018-09-05T03:37:39.639Z,47.23
2018-09-05T03:40:11.688Z,39.43
2018-09-05T03:42:43.764Z,41.00
2018-09-05T03:45:15.758Z,39.47
2018-09-05T03:47:47.758Z,37.83
2018-09-05T03:50:19.861Z,44.03
2018-09-05T03:52:51.929Z,36.97
2018-09-05T03:55:23.933Z,36.63
2018-09-05T03:57:55.956Z,46.50
2018-09-05T04:00:31.392Z,49.57
2018-09-05T04:03:04.256Z,55.67
2018-09-05T04:05:36.286Z,43.33
2018-09-05T04:08:08.301Z,42.70
2018-09-05T04:10:40.602Z,54.10
2018-09-05T04:13:12.627Z,48.50
2018-09-05T04:15:44.641Z,45.43
2018-09-05T04:18:16.653Z,50.80
2018-09-05T04:20:48.745Z,60.17
2018-09-05T04:23:20.776Z,41.50
2018-09-05T04:25:52.803Z,60.47
2018-09-05T04:28:24.885Z,51.70
2018-09-05T04:30:57.013Z,41.43
2018-09-05T04:33:29.145Z,45.37
2018-09-05T04:36:01.202Z,50.77
2018-09-05T04:38:33.299Z,43.97
2018-09-05T04:41:05.348Z,43.73
2018-09-05T04:43:37.395Z,51.87
2018-09-05T04:46:09.543Z,44.00
2018-09-05T04:48:41.549Z,48.20
2018-09-05T04:51:13.595Z,44.63
2018-09-05T04:53:45.636Z,42.43
2018-09-05T04:56:17.652Z,41.67
2018-09-05T04:58:49.686Z,49.63
2018-09-05T05:01:21.728Z,45.67
2018-09-05T05:03:53.869Z,49.20
2018-09-05T05:06:25.855Z,45.20
2018-09-05T05:08:57.911Z,43.63
2018-09-05T05:11:29.923Z,41.77
2018-09-05T05:14:02.050Z,39.73
2018-09-05T05:16:34.116Z,44.87
2018-09-05T05:19:06.162Z,44.23
2018-09-05T05:21:38.160Z,44.03
2018-09-05T05:24:10.232Z,45.70
2018-09-05T05:26:42.318Z,48.87
2018-09-05T05:29:14.334Z,46.90
2018-09-05T05:31:46.389Z,41.23
2018-09-05T05:34:18.856Z,45.77
2018-09-05T05:36:50.980Z,43.50
2018-09-05T05:39:23.427Z,47.40
2018-09-05T05:41:55.490Z,46.43
2018-09-05T05:44:27.530Z,41.60
2018-09-05T05:46:59.579Z,41.77
2018-09-05T05:49:31.714Z,41.03
2018-09-05T05:52:03.727Z,44.10
2018-09-05T05:54:35.773Z,41.77
2018-09-05T05:57:07.782Z,41.17
2018-09-05T05:59:39.827Z,40.07
2018-09-05T06:02:11.907Z,39.33
2018-09-05T06:04:44.120Z,36.83
2018-09-05T06:07:16.254Z,41.10
2018-09-05T06:09:48.442Z,36.00
2018-09-05T06:12:20.545Z,38.13
2018-09-05T06:14:52.574Z,39.37
2018-09-05T06:17:24.646Z,33.97
2018-09-05T06:19:56.748Z,42.43
2018-09-05T06:22:29.116Z,34.50
2018-09-05T06:25:01.174Z,41.40
2018-09-05T06:27:33.223Z,37.27
2018-09-05T06:30:05.390Z,37.00
2018-09-05T06:32:37.383Z,42.37
2018-09-05T06:35:09.420Z,42.83
2018-09-05T06:37:41.457Z,35.13
2018-09-05T06:40:13.464Z,34.80
2018-09-05T06:42:45.453Z,38.17
2018-09-05T06:45:17.480Z,41.70
2018-09-05T06:47:49.522Z,42.63
2018-09-05T06:50:21.653Z,42.43
2018-09-05T06:52:53.730Z,40.27
2018-09-05T06:55:25.830Z,39.47
2018-09-05T06:57:57.968Z,34.90
2018-09-05T07:00:30.087Z,35.27
2018-09-05T07:03:02.147Z,32.97
2018-09-05T07:05:34.296Z,33.20
2018-09-05T07:08:06.384Z,36.30
2018-09-05T07:10:38.470Z,33.30
2018-09-05T07:13:10.541Z,35.43
2018-09-05T07:15:42.612Z,33.67
2018-09-05T07:18:14.612Z,35.30
2018-09-05T07:20:46.706Z,32.23
2018-09-05T07:23:18.714Z,37.50
2018-09-05T07:25:50.708Z,38.90
2018-09-05T07:28:23.021Z,32.83
2018-09-05T07:30:55.229Z,38.60
2018-09-05T07:33:27.330Z,35.27
2018-09-05T07:35:59.442Z,35.13
2018-09-05T07:38:31.572Z,32.83
2018-09-05T07:41:04.094Z,31.67
2018-09-05T07:43:36.998Z,35.07
2018-09-05T07:46:09.041Z,32.83
2018-09-05T07:48:41.210Z,34.13
2018-09-05T07:51:13.352Z,34.60
2018-09-05T07:53:45.380Z,36.30
2018-09-05T07:56:17.410Z,39.77
2018-09-05T07:58:49.539Z,40.67
2018-09-05T08:01:21.551Z,38.43
2018-09-05T08:03:53.681Z,39.30
2018-09-05T08:06:25.702Z,37.97
2018-09-05T08:08:57.766Z,37.90
2018-09-05T08:11:29.811Z,37.87
2018-09-05T08:14:01.822Z,34.47
2018-09-05T08:16:33.946Z,32.87
2018-09-05T08:19:06.101Z,33.43
2018-09-05T08:21:38.202Z,30.10
2018-09-05T08:24:10.261Z,30.10
2018-09-05T08:26:42.370Z,28.87
2018-09-05T08:29:14.451Z,33.23
2018-09-05T08:31:46.429Z,29.90
2018-09-05T08:34:18.570Z,28.40
2018-09-05T08:36:50.810Z,27.70
2018-09-05T08:39:22.567Z,26.93
2018-09-05T08:41:54.595Z,27.93
2018-09-05T08:44:26.692Z,27.80
2018-09-05T08:46:58.667Z,29.13
2018-09-05T08:49:30.687Z,28.10
2018-09-05T08:52:02.699Z,32.00
2018-09-05T08:54:34.733Z,29.47
2018-09-05T08:57:07.409Z,30.17
2018-09-05T08:59:39.516Z,34.40
2018-09-05T09:02:11.546Z,35.20
2018-09-05T09:04:43.670Z,30.50
2018-09-05T09:07:15.696Z,27.43
2018-09-05T09:09:47.765Z,31.50
2018-09-05T09:12:20.063Z,30.40
2018-09-05T09:14:52.067Z,34.10
2018-09-05T09:17:24.158Z,34.70
2018-09-05T09:19:56.386Z,33.03
2018-09-05T09:22:28.456Z,33.07
2018-09-05T09:25:00.474Z,32.90
2018-09-05T09:27:32.572Z,30.87
2018-09-05T09:30:04.783Z,30.27
2018-09-05T09:32:36.892Z,31.80
2018-09-05T09:35:08.907Z,29.23
2018-09-05T09:37:41.017Z,28.17
2018-09-05T09:40:13.003Z,26.07
2018-09-05T09:42:45.133Z,27.43
2018-09-05T09:45:17.219Z,23.60
2018-09-05T09:47:49.319Z,24.70
2018-09-05T09:50:21.481Z,27.83
2018-09-05T09:52:53.557Z,26.30
2018-09-05T09:55:25.566Z,25.90
2018-09-05T09:57:57.620Z,28.90
2018-09-05T10:00:35.332Z,25.90
2018-09-05T10:03:12.922Z,28.43
2018-09-05T10:05:50.744Z,31.23
2018-09-05T10:08:28.541Z,31.50
2018-09-05T10:12:30.191Z,26.80
2018-09-05T10:15:06.783Z,28.00
2018-09-05T10:17:38.786Z,28.90
2018-09-05T10:20:10.887Z,27.13
2018-09-05T10:22:42.976Z,31.60
2018-09-05T10:25:14.902Z,30.93
2018-09-05T10:27:46.935Z,28.77
2018-09-05T10:30:18.967Z,31.50
2018-09-05T10:32:50.991Z,28.37
2018-09-05T10:35:23.013Z,28.77
2018-09-05T10:37:55.022Z,28.03
2018-09-05T10:40:27.135Z,29.33
2018-09-05T10:42:59.162Z,29.60
2018-09-05T10:45:31.203Z,28.47
2018-09-05T10:48:03.378Z,27.13
2018-09-05T10:50:35.394Z,26.30
2018-09-05T10:53:07.412Z,27.97
2018-09-05T10:55:39.427Z,30.77
2018-09-05T10:58:11.610Z,28.50
2018-09-05T11:00:43.661Z,27.07
2018-09-05T11:03:15.697Z,26.90
2018-09-05T11:05:47.727Z,27.53
2018-09-05T11:08:19.735Z,28.47
2018-09-05T11:10:51.847Z,26.67
2018-09-05T11:13:23.808Z,29.67
2018-09-05T11:15:55.839Z,28.87
2018-09-05T11:18:27.841Z,28.73
2018-09-05T11:20:59.920Z,26.93
2018-09-05T11:23:31.938Z,28.23
2018-09-05T11:26:03.954Z,28.83
2018-09-05T11:28:36.046Z,28.93
2018-09-05T11:31:08.098Z,28.17
2018-09-05T11:33:40.090Z,28.13
2018-09-05T11:36:12.103Z,25.47
2018-09-05T11:38:44.093Z,25.17
2018-09-05T11:41:16.117Z,29.90
2018-09-05T11:43:48.531Z,28.23
2018-09-05T11:46:20.721Z,28.03
2018-09-05T11:48:52.704Z,27.20
2018-09-05T11:51:24.734Z,26.30
2018-09-05T11:53:56.719Z,25.60
2018-09-05T11:56:28.739Z,38.67
2018-09-05T11:59:00.764Z,29.97
2018-09-05T12:01:32.801Z,25.97
2018-09-05T12:04:04.835Z,27.87
2018-09-05T12:06:37.008Z,27.53
2018-09-05T12:09:09.913Z,28.40
2018-09-05T12:11:41.942Z,31.20
2018-09-05T12:14:13.940Z,27.20
2018-09-05T12:16:46.015Z,25.33
2018-09-05T12:19:18.292Z,23.20
2018-09-05T12:21:50.418Z,25.57
2018-09-05T12:24:22.490Z,25.50
2018-09-05T12:26:54.542Z,25.97
2018-09-05T12:29:29.235Z,26.93
2018-09-05T12:32:01.357Z,29.23
2018-09-05T12:34:33.411Z,27.17
2018-09-05T12:37:05.430Z,26.30
2018-09-05T12:39:37.499Z,26.57
2018-09-05T12:42:09.679Z,25.80
2018-09-05T12:44:41.774Z,28.10
2018-09-05T12:47:13.812Z,29.30
2018-09-05T12:49:45.830Z,29.30
2018-09-05T12:52:17.846Z,29.23
2018-09-05T12:54:50.971Z,27.60
2018-09-05T12:57:23.054Z,26.50
2018-09-05T12:59:55.177Z,25.37
2018-09-05T13:02:27.203Z,28.33
2018-09-05T13:04:59.259Z,27.33
2018-09-05T13:07:31.283Z,26.83
2018-09-05T13:10:03.363Z,25.80
2018-09-05T13:12:35.643Z,25.00
2018-09-05T13:15:07.635Z,27.03
2018-09-05T13:17:39.683Z,25.43
2018-09-05T13:20:11.950Z,23.10
2018-09-05T13:22:44.019Z,23.67
2018-09-05T13:25:16.142Z,24.00
2018-09-05T13:27:48.279Z,24.90
2018-09-05T13:30:26.151Z,23.13
2018-09-05T13:32:58.189Z,21.50
2018-09-05T13:35:30.366Z,23.40
2018-09-05T13:38:02.410Z,22.83
2018-09-05T13:40:34.457Z,23.03
2018-09-05T13:43:06.608Z,19.40
2018-09-05T13:45:38.660Z,21.10
2018-09-05T13:48:10.727Z,19.87
2018-09-05T13:50:42.768Z,21.70
2018-09-05T13:53:14.772Z,19.83
2018-09-05T13:55:46.851Z,20.53
2018-09-05T13:58:18.899Z,18.83
2018-09-05T14:00:50.986Z,19.67
2018-09-05T14:03:23.032Z,19.50
2018-09-05T14:05:55.079Z,20.27
2018-09-05T14:08:27.202Z,19.20
2018-09-05T14:10:59.253Z,20.30
2018-09-05T14:13:31.385Z,19.13
2018-09-05T14:16:03.678Z,17.20
2018-09-05T14:18:35.708Z,16.43
2018-09-05T14:21:07.737Z,16.87
2018-09-05T14:23:39.832Z,18.00
2018-09-05T14:26:11.863Z,16.60
2018-09-05T14:28:43.889Z,17.00
2018-09-05T14:31:15.924Z,15.03
2018-09-05T14:33:47.979Z,18.00
2018-09-05T14:36:20.038Z,18.93
2018-09-05T14:38:52.067Z,17.10
2018-09-05T14:41:24.054Z,19.10
2018-09-05T14:43:56.090Z,17.63
2018-09-05T14:46:28.086Z,16.83
2018-09-05T14:49:00.110Z,15.53
2018-09-05T14:51:32.192Z,15.60
2018-09-05T14:54:04.270Z,15.90
2018-09-05T14:56:36.208Z,18.40
2018-09-05T14:59:08.240Z,15.63
2018-09-05T15:01:40.235Z,15.80
2018-09-05T15:04:12.283Z,17.40
2018-09-05T15:06:44.290Z,16.03
2018-09-05T15:09:16.362Z,17.33
2018-09-05T15:11:48.416Z,17.67
2018-09-05T15:14:20.371Z,15.57
2018-09-05T15:16:52.355Z,16.20
2018-09-05T15:19:24.359Z,14.40
2018-09-05T15:21:56.386Z,13.40
2018-09-05T15:24:28.384Z,16.20
2018-09-05T15:27:00.430Z,15.97
2018-09-05T15:29:32.473Z,16.30
2018-09-05T15:32:04.509Z,15.63
2018-09-05T15:34:36.499Z,16.40
2018-09-05T15:37:08.514Z,17.90
2018-09-05T15:39:40.576Z,14.90
2018-09-05T15:42:12.563Z,16.23
2018-09-05T15:44:44.557Z,15.50
2018-09-05T15:47:16.566Z,16.57
2018-09-05T15:49:48.551Z,15.57
2018-09-05T15:52:20.557Z,17.30
2018-09-05T15:54:52.542Z,17.00
2018-09-05T15:57:24.588Z,16.37
2018-09-05T15:59:56.635Z,16.53
2018-09-05T16:02:28.698Z,16.67
2018-09-05T16:05:00.712Z,16.00
2018-09-05T16:07:32.709Z,16.53
2018-09-05T16:10:04.770Z,16.83
2018-09-05T16:12:36.785Z,19.10
2018-09-05T16:15:08.869Z,18.13
2018-09-05T16:17:40.774Z,18.80
2018-09-05T16:20:12.813Z,17.17
2018-09-05T16:22:44.812Z,18.30
2018-09-05T16:25:16.845Z,19.43
2018-09-05T16:27:48.877Z,19.43
2018-09-05T16:30:20.882Z,18.97
2018-09-05T16:32:52.906Z,18.53
2018-09-05T16:35:24.982Z,17.50
2018-09-05T16:37:56.935Z,17.90
2018-09-05T16:40:28.927Z,19.00
2018-09-05T16:43:01.026Z,17.50
2018-09-05T16:45:33.129Z,18.13
2018-09-05T16:48:05.258Z,17.27
2018-09-05T16:50:37.252Z,17.80
2018-09-05T16:53:09.276Z,17.40
2018-09-05T16:55:41.304Z,16.90
2018-09-05T16:58:13.300Z,16.60
2018-09-05T17:00:45.322Z,16.43
2018-09-05T17:03:17.330Z,15.77
2018-09-05T17:05:49.352Z,16.47
2018-09-05T17:08:21.354Z,16.73
2018-09-05T17:10:53.387Z,16.57
2018-09-05T17:13:25.424Z,17.10
2018-09-05T17:15:57.574Z,17.27
2018-09-05T17:18:29.657Z,17.63
2018-09-05T17:21:01.680Z,17.27
2018-09-05T17:23:33.700Z,17.90
2018-09-05T17:26:05.749Z,17.60
2018-09-05T17:28:37.784Z,17.37
2018-09-05T17:31:09.844Z,17.83
2018-09-05T17:33:41.844Z,19.40
2018-09-05T17:36:14.101Z,18.77
2018-09-05T17:38:46.143Z,18.70
2018-09-05T17:41:18.172Z,17.17
2018-09-05T17:43:50.175Z,17.17
2018-09-05T17:46:22.215Z,17.77
2018-09-05T17:48:54.220Z,16.80
2018-09-05T17:51:26.274Z,17.23
2018-09-05T17:53:58.268Z,17.90
2018-09-05T17:56:30.321Z,17.83
2018-09-05T17:59:02.417Z,19.10
2018-09-05T18:01:35.546Z,16.87
2018-09-05T18:04:07.570Z,19.30
2018-09-05T18:06:39.594Z,18.03
2018-09-05T18:09:11.973Z,18.20
2018-09-05T18:11:44.038Z,19.37
2018-09-05T18:14:16.065Z,18.50
2018-09-05T18:16:48.241Z,18.53
2018-09-05T18:19:20.414Z,17.83
2018-09-05T18:21:52.551Z,18.30
2018-09-05T18:24:24.605Z,18.17
2018-09-05T18:26:56.807Z,21.57
2018-09-05T18:29:28.818Z,17.40
2018-09-05T18:32:01.187Z,17.53
2018-09-05T18:34:33.252Z,17.03
2018-09-05T18:37:05.480Z,18.40
2018-09-05T18:39:37.624Z,17.63
2018-09-05T18:42:09.639Z,19.50
2018-09-05T18:44:41.807Z,20.10
2018-09-05T18:47:14.868Z,18.20
2018-09-05T18:49:46.999Z,19.17
2018-09-05T18:52:19.095Z,18.27
2018-09-05T18:54:51.112Z,19.00
2018-09-05T18:57:23.239Z,21.80
2018-09-05T18:59:55.266Z,18.53
2018-09-05T19:02:27.313Z,20.40
2018-09-05T19:04:59.571Z,21.00
2018-09-05T19:10:10.509Z,19.70
2018-09-05T19:12:42.567Z,21.03
2018-09-05T19:15:14.675Z,18.30
2018-09-05T19:17:46.834Z,20.10
2018-09-05T19:20:18.866Z,19.93
2018-09-05T19:22:50.952Z,21.83
2018-09-05T19:25:23.105Z,20.80
2018-09-05T19:27:55.176Z,21.63
2018-09-05T19:30:27.242Z,23.20
2018-09-05T19:32:59.266Z,21.17
2018-09-05T19:35:31.706Z,20.40
2018-09-05T19:38:03.702Z,22.13
2018-09-05T19:40:35.840Z,21.10
2018-09-05T19:43:07.864Z,24.63
2018-09-05T19:45:39.953Z,22.00
2018-09-05T19:48:11.974Z,23.00
2018-09-05T19:50:44.136Z,23.47
2018-09-05T19:53:16.226Z,23.50
2018-09-05T19:55:48.253Z,23.50
2018-09-05T19:58:20.493Z,23.07
2018-09-05T20:00:52.669Z,23.53
2018-09-05T20:03:31.672Z,21.57
2018-09-05T20:06:03.686Z,23.17
2018-09-05T20:08:35.747Z,21.47
2018-09-05T20:11:08.435Z,23.33
2018-09-05T20:13:40.583Z,22.10
2018-09-05T20:16:13.514Z,23.80
2018-09-05T20:18:45.620Z,21.37
2018-09-05T20:21:17.650Z,23.10
2018-09-05T20:23:49.695Z,22.37
2018-09-05T20:26:22.489Z,22.30
2018-09-05T20:28:55.255Z,24.03
2018-09-05T20:31:27.229Z,21.87
2018-09-05T20:33:59.471Z,22.27
2018-09-05T20:36:32.011Z,23.50
2018-09-05T20:39:07.234Z,21.93
2018-09-05T20:41:39.430Z,22.10
2018-09-05T20:44:11.451Z,22.83
2018-09-05T20:46:43.476Z,23.10
2018-09-05T20:49:15.532Z,21.80
2018-09-05T20:51:47.786Z,22.13
2018-09-05T20:54:19.872Z,22.70
2018-09-05T20:56:52.177Z,24.13
2018-09-05T20:59:24.473Z,24.80
2018-09-05T21:01:56.534Z,24.10
2018-09-05T21:04:28.824Z,23.70
2018-09-05T21:07:00.947Z,21.67
2018-09-05T21:09:34.167Z,21.73
2018-09-05T21:12:06.179Z,20.20
2018-09-05T21:14:38.262Z,21.13
2018-09-05T21:17:10.584Z,22.37
2018-09-05T21:19:42.860Z,24.17
2018-09-05T21:22:16.111Z,21.10
2018-09-05T21:24:48.295Z,23.40
2018-09-05T21:27:20.358Z,22.30
2018-09-05T21:29:52.393Z,21.60
2018-09-05T21:32:24.424Z,22.47
2018-09-05T21:34:56.568Z,24.70
2018-09-05T21:37:28.641Z,25.70
2018-09-05T21:40:00.708Z,23.90
2018-09-05T21:42:32.718Z,22.77
2018-09-05T21:45:05.160Z,23.60
2018-09-05T21:47:37.189Z,22.87
2018-09-05T21:50:09.219Z,25.37
2018-09-05T21:52:41.303Z,25.57
2018-09-05T21:55:13.346Z,25.03
2018-09-05T21:57:45.362Z,22.00
2018-09-05T22:00:17.347Z,23.53
2018-09-05T22:02:49.457Z,22.60
2018-09-05T22:05:21.484Z,24.10
2018-09-05T22:07:53.713Z,23.37
2018-09-05T22:10:25.715Z,22.97
2018-09-05T22:12:57.751Z,24.20
2018-09-05T22:15:34.959Z,22.73
2018-09-05T22:18:06.986Z,21.60
2018-09-05T22:20:38.986Z,25.17
2018-09-05T22:23:11.091Z,24.17
2018-09-05T22:25:43.124Z,22.37
2018-09-05T22:28:15.118Z,24.50
2018-09-05T22:30:47.150Z,23.90
2018-09-05T22:33:19.169Z,25.63
2018-09-05T22:35:51.182Z,24.27
2018-09-05T22:38:23.184Z,23.20
2018-09-05T22:40:55.651Z,23.80
2018-09-05T22:43:39.176Z,21.77
2018-09-05T22:46:22.648Z,24.67
2018-09-05T22:51:25.221Z,26.53
2018-09-05T22:56:21.675Z,27.20
2018-09-05T23:00:06.861Z,23.53
2018-09-05T23:04:52.676Z,21.50
2018-09-05T23:09:39.455Z,23.60
2018-09-05T23:12:24.770Z,20.70
2018-09-05T23:15:08.399Z,22.87
2018-09-05T23:19:59.733Z,23.03
2018-09-05T23:22:43.408Z,22.73
2018-09-05T23:25:15.403Z,21.27
2018-09-05T23:27:47.453Z,24.90
2018-09-05T23:30:19.488Z,26.90
2018-09-05T23:32:51.536Z,27.13
2018-09-05T23:35:23.560Z,23.33
2018-09-05T23:37:55.594Z,24.40
2018-09-05T23:40:27.657Z,26.83
2018-09-05T23:42:59.798Z,24.47
2018-09-05T23:45:31.861Z,24.70
2018-09-05T23:48:04.125Z,24.00
2018-09-05T23:50:36.139Z,24.93
2018-09-05T23:53:08.250Z,27.53
2018-09-05T23:55:40.313Z,25.43
2018-09-05T23:58:12.366Z,25.50
